createdAt,value
2018-05-03T00:00:52.020Z,0.00
2018-05-03T00:01:52.116Z,0.00
2018-05-03T00:02:52.210Z,0.00
2018-05-03T00:03:52.304Z,0.00
2018-05-03T00:04:52.399Z,0.00
2018-05-03T00:05:52.482Z,0.00
2018-05-03T00:06:52.593Z,0.00
2018-05-03T00:07:52.688Z,0.00
2018-05-03T00:08:52.781Z,0.00
2018-05-03T00:09:52.878Z,0.00
2018-05-03T00:10:52.972Z,0.00
2018-05-03T00:11:53.070Z,0.00
2018-05-03T00:12:53.164Z,0.00
2018-05-03T00:13:53.262Z,0.00
2018-05-03T00:14:53.360Z,0.00
2018-05-03T00:15:53.450Z,0.00
2018-05-03T00:16:53.545Z,0.00
2018-05-03T00:17:53.641Z,0.00
2018-05-03T00:18:53.753Z,0.00
2018-05-03T00:19:53.854Z,0.00
2018-05-03T00:20:53.947Z,0.00
2018-05-03T00:21:54.039Z,0.00
2018-05-03T00:22:54.136Z,0.00
2018-05-03T00:23:54.231Z,0.00
2018-05-03T00:24:54.328Z,0.00
2018-05-03T00:25:54.425Z,0.00
2018-05-03T00:26:54.518Z,0.00
2018-05-03T00:27:54.616Z,0.00
2018-05-03T00:28:54.710Z,0.00
2018-05-03T00:29:54.805Z,0.00
2018-05-03T00:30:54.904Z,0.00
2018-05-03T00:31:54.998Z,0.00
2018-05-03T00:32:55.090Z,0.00
2018-05-03T00:33:55.184Z,0.00
2018-05-03T00:34:55.277Z,0.00
2018-05-03T00:35:55.373Z,0.00
2018-05-03T00:36:55.470Z,0.00
2018-05-03T00:37:55.562Z,0.00
2018-05-03T00:38:55.656Z,0.00
2018-05-03T00:39:55.753Z,0.00
2018-05-03T00:40:55.850Z,0.00
2018-05-03T00:41:55.942Z,0.00
2018-05-03T00:42:56.039Z,0.00
2018-05-03T00:43:56.133Z,0.00
2018-05-03T00:44:56.229Z,0.00
2018-05-03T00:45:56.322Z,0.00
2018-05-03T00:46:56.410Z,0.00
2018-05-03T00:47:56.503Z,0.00
2018-05-03T00:48:56.601Z,0.00
2018-05-03T00:49:56.697Z,0.00
2018-05-03T00:50:56.792Z,0.00
2018-05-03T00:51:56.911Z,0.00
2018-05-03T00:52:57.005Z,0.00
2018-05-03T00:53:57.106Z,0.00
2018-05-03T00:54:57.199Z,0.00
2018-05-03T00:55:57.297Z,0.00
2018-05-03T00:56:57.387Z,0.00
2018-05-03T00:57:57.481Z,0.00
2018-05-03T00:58:57.576Z,0.00
2018-05-03T00:59:57.672Z,0.00
2018-05-03T01:00:57.766Z,0.00
2018-05-03T01:01:57.863Z,0.00
2018-05-03T01:02:57.966Z,0.00
2018-05-03T01:03:58.076Z,0.00
2018-05-03T01:04:58.202Z,0.00
2018-05-03T01:05:58.312Z,0.00
2018-05-03T01:06:58.407Z,0.00
2018-05-03T01:07:58.501Z,0.00
2018-05-03T01:08:58.598Z,0.00
2018-05-03T01:09:58.691Z,0.00
2018-05-03T01:10:58.786Z,0.00
2018-05-03T01:11:58.880Z,0.00
2018-05-03T01:12:58.980Z,0.00
2018-05-03T01:13:59.071Z,0.00
2018-05-03T01:14:59.164Z,0.00
2018-05-03T01:15:59.356Z,0.00
2018-05-03T01:16:59.288Z,0.00
2018-05-03T01:17:59.380Z,0.00
2018-05-03T01:18:59.470Z,0.00
2018-05-03T01:19:59.575Z,0.00
2018-05-03T01:20:59.671Z,0.00
2018-05-03T01:21:59.772Z,0.00
2018-05-03T01:22:59.911Z,0.00
2018-05-03T01:24:00.005Z,0.00
2018-05-03T01:25:00.093Z,0.00
2018-05-03T01:26:00.183Z,0.00
2018-05-03T01:27:00.272Z,0.00
2018-05-03T01:28:00.377Z,0.00
2018-05-03T01:29:00.512Z,0.00
2018-05-03T01:30:00.606Z,0.00
2018-05-03T01:31:00.702Z,0.00
2018-05-03T01:32:00.788Z,0.00
2018-05-03T01:33:00.883Z,0.00
2018-05-03T01:34:01.011Z,0.00
2018-05-03T01:35:01.095Z,0.00
2018-05-03T01:36:01.201Z,0.00
2018-05-03T01:37:01.285Z,0.00
2018-05-03T01:38:01.376Z,0.00
2018-05-03T01:39:01.478Z,0.00
2018-05-03T01:40:01.540Z,0.00
2018-05-03T01:41:01.675Z,0.00
2018-05-03T01:42:01.778Z,0.00
2018-05-03T01:43:01.858Z,0.00
2018-05-03T01:44:01.956Z,0.00
2018-05-03T01:45:02.041Z,0.00
2018-05-03T01:46:02.175Z,0.00
2018-05-03T01:47:02.286Z,0.00
2018-05-03T01:48:02.375Z,0.00
2018-05-03T01:49:02.472Z,0.00
2018-05-03T01:50:02.616Z,0.00
2018-05-03T01:51:02.747Z,0.00
2018-05-03T01:52:02.847Z,0.00
2018-05-03T01:53:02.944Z,0.00
2018-05-03T01:54:03.031Z,0.00
2018-05-03T01:55:03.132Z,0.00
2018-05-03T01:56:03.247Z,0.00
2018-05-03T01:57:03.337Z,0.00
2018-05-03T01:58:03.420Z,0.00
2018-05-03T01:59:03.548Z,0.00
2018-05-03T02:00:03.630Z,0.00
2018-05-03T02:01:03.712Z,0.00
2018-05-03T02:02:03.822Z,0.00
2018-05-03T02:03:03.901Z,0.00
2018-05-03T02:04:03.993Z,0.00
2018-05-03T02:05:04.087Z,0.00
2018-05-03T02:06:04.192Z,0.00
2018-05-03T02:07:04.309Z,0.00
2018-05-03T02:08:04.422Z,0.00
2018-05-03T02:09:04.499Z,0.00
2018-05-03T02:10:04.594Z,0.00
2018-05-03T02:11:04.685Z,0.00
2018-05-03T02:12:04.799Z,0.00
2018-05-03T02:13:04.895Z,0.00
2018-05-03T02:14:05.032Z,0.00
2018-05-03T02:15:05.134Z,0.00
2018-05-03T02:16:05.239Z,0.00
2018-05-03T02:17:05.323Z,0.00
2018-05-03T02:18:05.418Z,0.00
2018-05-03T02:19:05.520Z,0.00
2018-05-03T02:20:05.639Z,0.00
2018-05-03T02:21:05.724Z,0.00
2018-05-03T02:22:05.805Z,0.00
2018-05-03T02:23:05.897Z,0.00
2018-05-03T02:24:05.994Z,0.00
2018-05-03T02:25:06.083Z,0.00
2018-05-03T02:26:06.171Z,0.00
2018-05-03T02:27:06.266Z,0.00
2018-05-03T02:28:06.354Z,0.00
2018-05-03T02:29:06.531Z,0.00
2018-05-03T02:30:06.488Z,0.00
2018-05-03T02:31:06.600Z,0.00
2018-05-03T02:32:06.704Z,0.00
2018-05-03T02:33:06.795Z,0.00
2018-05-03T02:34:06.879Z,0.00
2018-05-03T02:35:06.977Z,0.00
2018-05-03T02:36:07.085Z,0.00
2018-05-03T02:37:07.167Z,0.00
2018-05-03T02:38:07.257Z,0.00
2018-05-03T02:39:07.351Z,0.00
2018-05-03T02:40:07.459Z,0.00
2018-05-03T02:41:07.559Z,0.00
2018-05-03T02:42:07.657Z,0.00
2018-05-03T02:43:07.754Z,0.00
2018-05-03T02:44:07.851Z,0.00
2018-05-03T02:45:07.947Z,0.00
2018-05-03T02:46:08.053Z,0.00
2018-05-03T02:47:08.159Z,0.00
2018-05-03T02:48:08.250Z,0.00
2018-05-03T02:49:08.382Z,0.00
2018-05-03T02:50:08.476Z,0.00
2018-05-03T02:51:08.572Z,0.00
2018-05-03T02:52:08.664Z,0.00
2018-05-03T02:53:08.758Z,0.00
2018-05-03T02:54:08.878Z,0.00
2018-05-03T02:55:08.979Z,0.00
2018-05-03T02:56:09.087Z,0.00
2018-05-03T02:57:09.182Z,0.00
2018-05-03T02:58:09.277Z,0.00
2018-05-03T02:59:09.362Z,0.00
2018-05-03T03:00:09.457Z,0.00
2018-05-03T03:01:09.555Z,0.00
2018-05-03T03:02:09.650Z,0.00
2018-05-03T03:03:09.742Z,0.00
2018-05-03T03:04:09.865Z,0.00
2018-05-03T03:05:09.965Z,0.00
2018-05-03T03:06:10.071Z,0.00
2018-05-03T03:07:10.181Z,0.00
2018-05-03T03:08:10.274Z,0.00
2018-05-03T03:09:10.375Z,0.00
2018-05-03T03:10:10.478Z,0.00
2018-05-03T03:11:10.573Z,0.00
2018-05-03T03:12:10.675Z,0.00
2018-05-03T03:13:10.771Z,0.00
2018-05-03T03:14:10.854Z,0.00
2018-05-03T03:15:10.944Z,0.00
2018-05-03T03:16:11.037Z,0.00
2018-05-03T03:17:11.130Z,0.00
2018-05-03T03:18:11.228Z,0.00
2018-05-03T03:19:11.311Z,0.00
2018-05-03T03:20:11.437Z,0.00
2018-05-03T03:21:11.508Z,0.00
2018-05-03T03:22:11.605Z,0.00
2018-05-03T03:23:11.708Z,0.00
2018-05-03T03:24:11.794Z,0.00
2018-05-03T03:25:11.886Z,0.00
2018-05-03T03:26:11.983Z,0.00
2018-05-03T03:27:12.077Z,0.00
2018-05-03T03:28:12.159Z,0.00
2018-05-03T03:29:12.273Z,0.00
2018-05-03T03:30:12.368Z,0.00
2018-05-03T03:31:12.465Z,0.00
2018-05-03T03:32:12.560Z,0.00
2018-05-03T03:33:12.655Z,0.00
2018-05-03T03:34:12.750Z,0.00
2018-05-03T03:35:12.841Z,0.00
2018-05-03T03:36:12.940Z,0.00
2018-05-03T03:37:13.032Z,0.00
2018-05-03T03:38:13.129Z,0.00
2018-05-03T03:39:13.221Z,0.00
2018-05-03T03:40:13.320Z,0.00
2018-05-03T03:41:13.411Z,0.00
2018-05-03T03:42:13.509Z,0.00
2018-05-03T03:43:13.598Z,0.00
2018-05-03T03:44:13.688Z,0.00
2018-05-03T03:45:13.784Z,0.00
2018-05-03T03:46:13.879Z,0.00
2018-05-03T03:47:13.974Z,0.00
2018-05-03T03:48:14.072Z,0.00
2018-05-03T03:49:14.164Z,0.00
2018-05-03T03:50:14.259Z,0.00
2018-05-03T03:51:14.353Z,0.00
2018-05-03T03:52:14.447Z,5.63
2018-05-03T03:53:14.599Z,5.63
2018-05-03T03:54:14.662Z,5.63
2018-05-03T03:55:14.756Z,5.63
2018-05-03T03:56:14.853Z,5.63
2018-05-03T03:57:14.949Z,5.63
2018-05-03T03:58:15.042Z,5.63
2018-05-03T03:59:15.139Z,5.63
2018-05-03T04:00:15.225Z,5.63
2018-05-03T04:01:15.308Z,5.63
2018-05-03T04:02:15.406Z,5.63
2018-05-03T04:03:15.513Z,5.63
2018-05-03T04:04:15.611Z,5.63
2018-05-03T04:05:15.702Z,5.63
2018-05-03T04:06:15.798Z,5.63
2018-05-03T04:07:15.892Z,5.63
2018-05-03T04:08:15.985Z,5.63
2018-05-03T04:09:16.085Z,5.63
2018-05-03T04:10:16.181Z,5.63
2018-05-03T04:11:16.275Z,5.63
2018-05-03T04:12:16.373Z,5.63
2018-05-03T04:13:16.469Z,5.63
2018-05-03T04:14:16.561Z,11.25
2018-05-03T04:15:16.657Z,11.25
2018-05-03T04:16:16.753Z,11.25
2018-05-03T04:17:16.848Z,11.25
2018-05-03T04:18:16.946Z,11.25
2018-05-03T04:19:17.044Z,16.88
2018-05-03T04:20:17.138Z,16.88
2018-05-03T04:21:17.238Z,16.88
2018-05-03T04:22:17.386Z,16.88
2018-05-03T04:23:17.428Z,16.88
2018-05-03T04:24:17.523Z,16.88
2018-05-03T04:25:17.617Z,22.50
2018-05-03T04:26:17.715Z,22.50
2018-05-03T04:27:17.810Z,22.50
2018-05-03T04:28:17.906Z,22.50
2018-05-03T04:29:18.001Z,28.13
2018-05-03T04:30:18.096Z,28.13
2018-05-03T04:31:18.191Z,28.13
2018-05-03T04:32:18.285Z,28.13
2018-05-03T04:33:18.383Z,33.75
2018-05-03T04:34:18.477Z,33.75
2018-05-03T04:35:18.572Z,33.75
2018-05-03T04:36:18.666Z,33.75
2018-05-03T04:37:18.763Z,33.75
2018-05-03T04:38:18.864Z,33.75
2018-05-03T04:39:18.954Z,33.75
2018-05-03T04:40:19.050Z,33.75
2018-05-03T04:41:19.149Z,33.75
2018-05-03T04:42:19.240Z,33.75
2018-05-03T04:43:19.337Z,33.75
2018-05-03T04:44:19.436Z,33.75
2018-05-03T04:45:19.527Z,39.38
2018-05-03T04:46:19.622Z,39.38
2018-05-03T04:47:19.739Z,39.38
2018-05-03T04:48:19.833Z,45.00
2018-05-03T04:49:19.932Z,45.00
2018-05-03T04:50:20.024Z,45.00
2018-05-03T04:51:20.122Z,45.00
2018-05-03T04:52:20.216Z,45.00
2018-05-03T04:53:20.311Z,50.63
2018-05-03T04:54:20.410Z,50.63
2018-05-03T04:55:20.505Z,50.63
2018-05-03T04:56:20.602Z,50.63
2018-05-03T04:57:20.698Z,50.63
2018-05-03T04:58:20.795Z,56.25
2018-05-03T04:59:20.891Z,56.25
2018-05-03T05:00:20.987Z,61.88
2018-05-03T05:01:21.078Z,67.50
2018-05-03T05:02:21.235Z,67.50
2018-05-03T05:03:21.267Z,73.13
2018-05-03T05:04:21.363Z,78.75
2018-05-03T05:05:21.459Z,84.38
2018-05-03T05:06:21.559Z,84.38
2018-05-03T05:07:21.668Z,95.63
2018-05-03T05:08:21.765Z,101.25
2018-05-03T05:09:21.859Z,112.50
2018-05-03T05:10:21.959Z,118.13
2018-05-03T05:11:22.054Z,118.13
2018-05-03T05:12:22.216Z,118.13
2018-05-03T05:13:22.247Z,123.75
2018-05-03T05:14:22.350Z,123.75
2018-05-03T05:15:22.440Z,129.38
2018-05-03T05:16:22.539Z,135.00
2018-05-03T05:17:22.633Z,140.63
2018-05-03T05:18:22.731Z,146.25
2018-05-03T05:19:22.828Z,146.25
2018-05-03T05:20:22.920Z,146.25
2018-05-03T05:21:23.012Z,146.25
2018-05-03T05:22:23.106Z,146.25
2018-05-03T05:23:23.204Z,140.63
2018-05-03T05:24:23.304Z,135.00
2018-05-03T05:25:23.397Z,135.00
2018-05-03T05:26:23.493Z,135.00
2018-05-03T05:27:23.596Z,135.00
2018-05-03T05:28:23.691Z,135.00
2018-05-03T05:29:23.789Z,135.00
2018-05-03T05:30:23.885Z,135.00
2018-05-03T05:31:23.980Z,135.00
2018-05-03T05:32:24.076Z,129.38
2018-05-03T05:33:24.174Z,129.38
2018-05-03T05:34:24.272Z,129.38
2018-05-03T05:35:24.367Z,123.75
2018-05-03T05:36:24.464Z,123.75
2018-05-03T05:37:24.559Z,123.75
2018-05-03T05:38:24.727Z,118.13
2018-05-03T05:39:24.757Z,118.13
2018-05-03T05:40:24.850Z,123.75
2018-05-03T05:41:24.943Z,123.75
2018-05-03T05:42:25.029Z,123.75
2018-05-03T05:43:25.107Z,129.38
2018-05-03T05:44:25.219Z,129.38
2018-05-03T05:45:25.306Z,129.38
2018-05-03T05:46:25.403Z,129.38
2018-05-03T05:47:25.529Z,135.00
2018-05-03T05:48:25.620Z,135.00
2018-05-03T05:49:25.739Z,135.00
2018-05-03T05:50:25.848Z,140.63
2018-05-03T05:51:25.943Z,146.25
2018-05-03T05:52:26.042Z,151.88
2018-05-03T05:53:26.139Z,157.50
2018-05-03T05:54:26.237Z,163.13
2018-05-03T05:55:26.332Z,168.75
2018-05-03T05:56:26.429Z,174.38
2018-05-03T05:57:26.529Z,174.38
2018-05-03T05:58:26.625Z,180.00
2018-05-03T05:59:26.719Z,180.00
2018-05-03T06:00:26.815Z,185.63
2018-05-03T06:01:26.910Z,185.63
2018-05-03T06:02:27.014Z,185.63
2018-05-03T06:03:27.110Z,185.63
2018-05-03T06:04:27.202Z,191.25
2018-05-03T06:05:27.303Z,191.25
2018-05-03T06:06:27.398Z,196.88
2018-05-03T06:07:27.495Z,202.50
2018-05-03T06:08:27.585Z,208.13
2018-05-03T06:09:27.696Z,219.38
2018-05-03T06:10:27.946Z,225.00
2018-05-03T06:11:27.887Z,236.25
2018-05-03T06:12:27.986Z,241.88
2018-05-03T06:13:28.090Z,253.13
2018-05-03T06:14:28.185Z,270.00
2018-05-03T06:15:28.282Z,286.88
2018-05-03T06:16:28.377Z,292.50
2018-05-03T06:17:28.474Z,315.00
2018-05-03T06:18:28.572Z,326.25
2018-05-03T06:19:28.670Z,326.25
2018-05-03T06:20:28.768Z,343.13
2018-05-03T06:21:28.876Z,354.38
2018-05-03T06:22:28.975Z,376.88
2018-05-03T06:23:29.077Z,405.00
2018-05-03T06:24:29.174Z,405.00
2018-05-03T06:25:29.272Z,382.50
2018-05-03T06:26:29.356Z,360.00
2018-05-03T06:27:29.450Z,348.75
2018-05-03T06:28:29.549Z,326.25
2018-05-03T06:29:29.649Z,309.38
2018-05-03T06:30:29.756Z,320.63
2018-05-03T06:31:29.981Z,315.00
2018-05-03T06:32:29.971Z,298.13
2018-05-03T06:33:30.078Z,298.13
2018-05-03T06:34:30.166Z,292.50
2018-05-03T06:35:30.292Z,281.25
2018-05-03T06:36:30.426Z,292.50
2018-05-03T06:37:30.519Z,303.75
2018-05-03T06:38:30.650Z,348.75
2018-05-03T06:39:30.728Z,427.50
2018-05-03T06:40:30.837Z,410.63
2018-05-03T06:41:30.998Z,427.50
2018-05-03T06:42:31.089Z,433.13
2018-05-03T06:43:31.302Z,416.25
2018-05-03T06:44:31.284Z,483.75
2018-05-03T06:45:31.388Z,427.50
2018-05-03T06:46:31.469Z,461.25
2018-05-03T06:47:31.655Z,455.63
2018-05-03T06:48:31.755Z,444.38
2018-05-03T06:49:31.873Z,444.38
2018-05-03T06:50:32.202Z,438.75
2018-05-03T06:51:32.138Z,421.88
2018-05-03T06:52:32.271Z,421.88
2018-05-03T06:53:32.266Z,421.88
2018-05-03T06:54:32.361Z,416.25
2018-05-03T06:55:32.567Z,410.63
2018-05-03T06:56:32.673Z,410.63
2018-05-03T06:57:32.810Z,410.63
2018-05-03T06:58:32.938Z,405.00
2018-05-03T06:59:33.037Z,410.63
2018-05-03T07:00:33.223Z,405.00
2018-05-03T07:01:33.286Z,421.88
2018-05-03T07:02:33.275Z,416.25
2018-05-03T07:03:33.516Z,382.50
2018-05-03T07:04:33.524Z,427.50
2018-05-03T07:05:33.649Z,427.50
2018-05-03T07:06:33.682Z,450.00
2018-05-03T07:07:33.784Z,399.38
2018-05-03T07:08:34.055Z,450.00
2018-05-03T07:09:34.031Z,444.38
2018-05-03T07:10:34.134Z,371.25
2018-05-03T07:11:34.231Z,360.00
2018-05-03T07:12:34.324Z,365.63
2018-05-03T07:13:34.457Z,371.25
2018-05-03T07:14:34.584Z,388.13
2018-05-03T07:15:34.688Z,450.00
2018-05-03T07:16:34.783Z,466.88
2018-05-03T07:17:34.871Z,421.88
2018-05-03T07:18:34.969Z,438.75
2018-05-03T07:19:35.072Z,399.38
2018-05-03T07:20:35.167Z,410.63
2018-05-03T07:21:35.263Z,433.13
2018-05-03T07:22:35.364Z,433.13
2018-05-03T07:23:35.464Z,461.25
2018-05-03T07:24:35.561Z,438.75
2018-05-03T07:25:35.651Z,438.75
2018-05-03T07:26:35.761Z,388.13
2018-05-03T07:27:35.853Z,371.25
2018-05-03T07:28:35.970Z,376.88
2018-05-03T07:29:36.080Z,393.75
2018-05-03T07:30:36.171Z,410.63
2018-05-03T07:31:36.266Z,483.75
2018-05-03T07:32:36.355Z,450.00
2018-05-03T07:33:36.446Z,416.25
2018-05-03T07:34:36.575Z,371.25
2018-05-03T07:35:36.696Z,360.00
2018-05-03T07:36:36.788Z,337.50
2018-05-03T07:37:36.910Z,343.13
2018-05-03T07:38:37.014Z,331.88
2018-05-03T07:39:37.138Z,337.50
2018-05-03T07:40:37.268Z,331.88
2018-05-03T07:41:37.352Z,331.88
2018-05-03T07:42:40.440Z,343.13
2018-05-03T07:43:37.590Z,326.25
2018-05-03T07:44:37.687Z,315.00
2018-05-03T07:45:37.851Z,298.13
2018-05-03T07:46:37.841Z,286.88
2018-05-03T07:47:37.929Z,275.63
2018-05-03T07:48:38.095Z,275.63
2018-05-03T07:49:38.117Z,270.00
2018-05-03T07:50:38.327Z,275.63
2018-05-03T07:51:38.318Z,281.25
2018-05-03T07:52:38.411Z,286.88
2018-05-03T07:53:38.570Z,286.88
2018-05-03T07:54:38.672Z,275.63
2018-05-03T07:55:38.786Z,270.00
2018-05-03T07:56:38.965Z,264.38
2018-05-03T07:57:39.069Z,258.75
2018-05-03T07:58:39.186Z,258.75
2018-05-03T07:59:39.277Z,258.75
2018-05-03T08:00:39.375Z,258.75
2018-05-03T08:01:39.478Z,270.00
2018-05-03T08:02:39.588Z,281.25
2018-05-03T08:03:39.707Z,286.88
2018-05-03T08:04:39.821Z,292.50
2018-05-03T08:05:39.920Z,292.50
2018-05-03T08:06:40.030Z,292.50
2018-05-03T08:07:40.128Z,298.13
2018-05-03T08:08:40.216Z,298.13
2018-05-03T08:09:40.343Z,298.13
2018-05-03T08:10:40.528Z,298.13
2018-05-03T08:11:40.533Z,298.13
2018-05-03T08:12:40.684Z,298.13
2018-05-03T08:13:40.743Z,303.75
2018-05-03T08:14:40.848Z,303.75
2018-05-03T08:15:41.043Z,309.38
2018-05-03T08:16:41.049Z,309.38
2018-05-03T08:17:41.161Z,326.25
2018-05-03T08:18:41.267Z,331.88
2018-05-03T08:19:41.471Z,343.13
2018-05-03T08:20:41.443Z,348.75
2018-05-03T08:21:41.558Z,354.38
2018-05-03T08:22:41.772Z,365.63
2018-05-03T08:23:41.748Z,382.50
2018-05-03T08:24:41.902Z,388.13
2018-05-03T08:25:41.987Z,410.63
2018-05-03T08:26:42.082Z,427.50
2018-05-03T08:27:42.175Z,444.38
2018-05-03T08:28:42.274Z,472.50
2018-05-03T08:29:42.369Z,466.88
2018-05-03T08:30:42.481Z,461.25
2018-05-03T08:31:42.618Z,466.88
2018-05-03T08:32:42.663Z,466.88
2018-05-03T08:33:42.857Z,466.88
2018-05-03T08:34:42.957Z,466.88
2018-05-03T08:35:43.060Z,483.75
2018-05-03T08:36:43.160Z,478.13
2018-05-03T08:37:43.279Z,472.50
2018-05-03T08:38:43.377Z,478.13
2018-05-03T08:39:43.466Z,483.75
2018-05-03T08:40:43.605Z,489.38
2018-05-03T08:41:43.747Z,495.00
2018-05-03T08:42:43.743Z,500.63
2018-05-03T08:43:43.845Z,506.25
2018-05-03T08:44:43.943Z,517.50
2018-05-03T08:45:44.232Z,568.13
2018-05-03T08:46:44.135Z,596.25
2018-05-03T08:47:44.222Z,540.00
2018-05-03T08:48:44.316Z,562.50
2018-05-03T08:49:44.400Z,573.75
2018-05-03T08:50:44.550Z,601.88
2018-05-03T08:51:44.600Z,613.13
2018-05-03T08:52:44.702Z,652.50
2018-05-03T08:53:44.817Z,663.75
2018-05-03T08:54:44.913Z,669.38
2018-05-03T08:55:45.023Z,731.25
2018-05-03T08:56:45.115Z,770.63
2018-05-03T08:57:45.212Z,770.63
2018-05-03T08:58:45.325Z,714.38
2018-05-03T08:59:45.439Z,793.13
2018-05-03T09:00:45.533Z,720.00
2018-05-03T09:01:45.709Z,703.13
2018-05-03T09:02:45.807Z,635.63
2018-05-03T09:03:45.862Z,624.38
2018-05-03T09:04:45.941Z,613.13
2018-05-03T09:05:46.048Z,613.13
2018-05-03T09:06:46.198Z,613.13
2018-05-03T09:07:46.330Z,607.50
2018-05-03T09:08:46.428Z,618.75
2018-05-03T09:09:46.497Z,635.63
2018-05-03T09:10:46.628Z,646.88
2018-05-03T09:11:46.736Z,585.00
2018-05-03T09:12:46.865Z,573.75
2018-05-03T09:13:47.078Z,551.25
2018-05-03T09:14:47.026Z,545.63
2018-05-03T09:15:47.123Z,545.63
2018-05-03T09:16:47.229Z,551.25
2018-05-03T09:17:47.320Z,545.63
2018-05-03T09:18:47.425Z,534.38
2018-05-03T09:19:47.531Z,523.13
2018-05-03T09:20:47.677Z,534.38
2018-05-03T09:21:47.828Z,568.13
2018-05-03T09:22:47.852Z,579.38
2018-05-03T09:23:47.873Z,562.50
2018-05-03T09:24:48.051Z,579.38
2018-05-03T09:25:48.092Z,613.13
2018-05-03T09:26:48.099Z,562.50
2018-05-03T09:27:48.203Z,562.50
2018-05-03T09:28:48.294Z,585.00
2018-05-03T09:29:48.383Z,596.25
2018-05-03T09:30:48.500Z,585.00
2018-05-03T09:31:48.603Z,556.88
2018-05-03T09:32:48.693Z,573.75
2018-05-03T09:33:48.809Z,551.25
2018-05-03T09:34:48.901Z,523.13
2018-05-03T09:35:48.972Z,506.25
2018-05-03T09:36:49.081Z,483.75
2018-05-03T09:37:49.198Z,478.13
2018-05-03T09:38:49.283Z,472.50
2018-05-03T09:39:49.439Z,478.13
2018-05-03T09:40:49.490Z,483.75
2018-05-03T09:41:49.576Z,483.75
2018-05-03T09:42:49.662Z,495.00
2018-05-03T09:43:49.781Z,511.88
2018-05-03T09:44:49.882Z,523.13
2018-05-03T09:45:49.959Z,534.38
2018-05-03T09:46:50.067Z,551.25
2018-05-03T09:47:50.199Z,562.50
2018-05-03T09:48:50.208Z,590.63
2018-05-03T09:49:50.341Z,607.50
2018-05-03T09:50:50.425Z,624.38
2018-05-03T09:51:50.495Z,607.50
2018-05-03T09:52:50.610Z,618.75
2018-05-03T09:53:50.729Z,630.00
2018-05-03T09:54:50.834Z,652.50
2018-05-03T09:55:50.960Z,658.13
2018-05-03T09:56:51.071Z,658.13
2018-05-03T09:57:51.164Z,652.50
2018-05-03T09:58:51.258Z,635.63
2018-05-03T09:59:51.385Z,630.00
2018-05-03T10:00:51.488Z,624.38
2018-05-03T10:01:51.599Z,601.88
2018-05-03T10:02:51.798Z,585.00
2018-05-03T10:03:51.752Z,568.13
2018-05-03T10:04:51.933Z,551.25
2018-05-03T10:05:51.969Z,523.13
2018-05-03T10:06:52.072Z,506.25
2018-05-03T10:07:52.190Z,478.13
2018-05-03T10:08:52.273Z,466.88
2018-05-03T10:09:52.373Z,450.00
2018-05-03T10:10:52.477Z,433.13
2018-05-03T10:11:52.578Z,410.63
2018-05-03T10:12:52.678Z,393.75
2018-05-03T10:13:52.780Z,382.50
2018-05-03T10:14:52.885Z,382.50
2018-05-03T10:15:52.983Z,376.88
2018-05-03T10:16:53.086Z,382.50
2018-05-03T10:17:53.184Z,393.75
2018-05-03T10:18:53.288Z,405.00
2018-05-03T10:19:53.387Z,399.38
2018-05-03T10:20:53.492Z,388.13
2018-05-03T10:21:53.594Z,388.13
2018-05-03T10:22:53.699Z,382.50
2018-05-03T10:23:53.797Z,360.00
2018-05-03T10:24:53.900Z,343.13
2018-05-03T10:25:54.002Z,326.25
2018-05-03T10:26:54.101Z,315.00
2018-05-03T10:27:54.202Z,315.00
2018-05-03T10:28:54.306Z,326.25
2018-05-03T10:29:54.446Z,326.25
2018-05-03T10:30:54.507Z,337.50
2018-05-03T10:31:54.609Z,348.75
2018-05-03T10:32:54.707Z,348.75
2018-05-03T10:33:54.806Z,365.63
2018-05-03T10:34:54.913Z,371.25
2018-05-03T10:35:55.083Z,376.88
2018-05-03T10:36:55.112Z,376.88
2018-05-03T10:37:55.216Z,388.13
2018-05-03T10:38:55.316Z,399.38
2018-05-03T10:39:55.418Z,416.25
2018-05-03T10:40:55.516Z,416.25
2018-05-03T10:41:55.693Z,444.38
2018-05-03T10:42:55.717Z,450.00
2018-05-03T10:43:55.818Z,416.25
2018-05-03T10:44:55.923Z,410.63
2018-05-03T10:45:56.024Z,360.00
2018-05-03T10:46:56.124Z,388.13
2018-05-03T10:47:56.226Z,427.50
2018-05-03T10:48:56.319Z,343.13
2018-05-03T10:49:56.420Z,421.88
2018-05-03T10:50:56.520Z,478.13
2018-05-03T10:51:56.611Z,410.63
2018-05-03T10:52:56.725Z,438.75
2018-05-03T10:53:56.825Z,461.25
2018-05-03T10:54:56.933Z,511.88
2018-05-03T10:55:57.034Z,450.00
2018-05-03T10:56:57.134Z,562.50
2018-05-03T10:57:57.237Z,562.50
2018-05-03T10:58:57.322Z,585.00
2018-05-03T10:59:57.441Z,556.88
2018-05-03T11:00:57.541Z,556.88
2018-05-03T11:01:57.643Z,540.00
2018-05-03T11:02:57.744Z,517.50
2018-05-03T11:03:57.848Z,393.75
2018-05-03T11:04:57.945Z,348.75
2018-05-03T11:05:58.047Z,348.75
2018-05-03T11:06:58.147Z,348.75
2018-05-03T11:07:58.250Z,393.75
2018-05-03T11:08:58.349Z,382.50
2018-05-03T11:09:58.451Z,410.63
2018-05-03T11:10:58.556Z,455.63
2018-05-03T11:11:58.655Z,613.13
2018-05-03T11:12:58.762Z,568.13
2018-05-03T11:13:58.860Z,534.38
2018-05-03T11:14:58.965Z,489.38
2018-05-03T11:15:59.067Z,596.25
2018-05-03T11:16:59.175Z,590.63
2018-05-03T11:17:59.275Z,427.50
2018-05-03T11:18:59.375Z,461.25
2018-05-03T11:19:59.469Z,579.38
2018-05-03T11:20:59.651Z,405.00
2018-05-03T11:21:59.709Z,399.38
2018-05-03T11:22:59.848Z,416.25
2018-05-03T11:23:59.938Z,461.25
2018-05-03T11:25:00.061Z,450.00
2018-05-03T11:26:00.177Z,466.88
2018-05-03T11:27:00.331Z,489.38
2018-05-03T11:28:00.310Z,596.25
2018-05-03T11:29:00.421Z,641.25
2018-05-03T11:30:00.659Z,646.88
2018-05-03T11:31:00.708Z,635.63
2018-05-03T11:32:00.724Z,630.00
2018-05-03T11:33:00.820Z,691.88
2018-05-03T11:34:00.918Z,495.00
2018-05-03T11:35:01.185Z,433.13
2018-05-03T11:36:01.078Z,466.88
2018-05-03T11:37:01.202Z,438.75
2018-05-03T11:38:01.274Z,450.00
2018-05-03T11:39:01.363Z,450.00
2018-05-03T11:40:01.495Z,444.38
2018-05-03T11:41:01.630Z,433.13
2018-05-03T11:42:01.720Z,444.38
2018-05-03T11:43:01.873Z,472.50
2018-05-03T11:44:01.972Z,483.75
2018-05-03T11:45:02.108Z,478.13
2018-05-03T11:46:02.231Z,478.13
2018-05-03T11:47:02.313Z,478.13
2018-05-03T11:48:02.438Z,483.75
2018-05-03T11:49:02.550Z,489.38
2018-05-03T11:50:02.648Z,573.75
2018-05-03T11:51:02.733Z,585.00
2018-05-03T11:52:02.858Z,455.63
2018-05-03T11:53:02.955Z,421.88
2018-05-03T11:54:03.044Z,365.63
2018-05-03T11:55:03.150Z,348.75
2018-05-03T11:56:03.241Z,331.88
2018-05-03T11:57:03.355Z,337.50
2018-05-03T11:58:03.446Z,331.88
2018-05-03T11:59:03.559Z,337.50
2018-05-03T12:00:03.650Z,348.75
2018-05-03T12:01:03.741Z,365.63
2018-05-03T12:02:03.852Z,388.13
2018-05-03T12:03:03.938Z,534.38
2018-05-03T12:04:04.031Z,450.00
2018-05-03T12:05:04.155Z,551.25
2018-05-03T12:06:04.297Z,669.38
2018-05-03T12:07:04.370Z,680.63
2018-05-03T12:08:04.487Z,708.75
2018-05-03T12:09:04.627Z,714.38
2018-05-03T12:10:04.728Z,714.38
2018-05-03T12:11:04.902Z,703.13
2018-05-03T12:12:04.868Z,697.50
2018-05-03T12:13:04.966Z,708.75
2018-05-03T12:14:05.060Z,703.13
2018-05-03T12:15:05.148Z,691.88
2018-05-03T12:16:05.268Z,663.75
2018-05-03T12:17:05.368Z,478.13
2018-05-03T12:18:05.463Z,455.63
2018-05-03T12:19:05.561Z,438.75
2018-05-03T12:20:05.671Z,405.00
2018-05-03T12:21:05.770Z,388.13
2018-05-03T12:22:05.891Z,360.00
2018-05-03T12:23:05.962Z,337.50
2018-05-03T12:24:06.061Z,331.88
2018-05-03T12:25:06.176Z,331.88
2018-05-03T12:26:06.296Z,343.13
2018-05-03T12:27:06.397Z,360.00
2018-05-03T12:28:06.500Z,365.63
2018-05-03T12:29:06.615Z,382.50
2018-05-03T12:30:06.715Z,382.50
2018-05-03T12:31:06.818Z,388.13
2018-05-03T12:32:06.946Z,405.00
2018-05-03T12:33:07.066Z,405.00
2018-05-03T12:34:07.153Z,410.63
2018-05-03T12:35:07.257Z,382.50
2018-05-03T12:36:07.368Z,354.38
2018-05-03T12:37:07.475Z,343.13
2018-05-03T12:38:07.574Z,405.00
2018-05-03T12:39:07.668Z,528.75
2018-05-03T12:40:07.855Z,500.63
2018-05-03T12:41:07.906Z,461.25
2018-05-03T12:42:08.017Z,568.13
2018-05-03T12:43:08.125Z,562.50
2018-05-03T12:44:08.222Z,472.50
2018-05-03T12:45:08.327Z,585.00
2018-05-03T12:46:08.446Z,590.63
2018-05-03T12:47:08.543Z,528.75
2018-05-03T12:48:08.639Z,646.88